Terminal Aerodrome Forecast
Issued by NWS

Home | Current Version | Previous Version | Text Only | Print | Product List | Glossary Off
Versions: 1 2 3 4 5 6 7 8 9 10 11 12 13 14 15 16 17 18 19 20

816
FTUS43 KGRB 221920 AAA
TAFMTW
TAF AMD
KMTW 221920Z 2219/2318 30015G22KT P6SM SCT050
     FM230000 30007KT P6SM FEW060
     FM231500 33008KT P6SM SCT040=

USA.gov is the U.S. government's official web portal to all federal, state and local government web resources and services.